Time;durP1;ratioP1;P1;durP2;ratioP2;P2;SDS_P1;SDS_P2;PMS_P1;PMS_P2;Temp;Humidity;BMP_temperature;BMP_pressure;BME280_temperature;BME280_humidity;BME280_pressure;Samples;Min_cycle;Max_cycle;Signal;HPM_P1;HPM_P2
2022/09/08 00:01:11;;;;;;;4.38;3.58;;;17.40;99.90;;;;;;5090881;28;20215;-51
2022/09/08 00:03:39;;;;;;;3.67;3.38;;;17.40;99.90;;;;;;5092105;28;20262;-51
2022/09/08 00:06:12;;;;;;;4.00;3.70;;;17.30;99.90;;;;;;5091636;28;20282;-51
2022/09/08 00:08:45;;;;;;;5.10;3.95;;;17.30;99.90;;;;;;5092215;28;20209;-51
2022/09/08 00:11:16;;;;;;;5.28;3.60;;;17.30;99.90;;;;;;5090797;28;20212;-51
2022/09/08 00:13:45;;;;;;;3.92;3.63;;;17.30;99.90;;;;;;5090379;28;20228;-51
2022/09/08 00:16:18;;;;;;;3.85;3.55;;;17.30;99.90;;;;;;5091748;28;20228;-51
2022/09/08 00:18:50;;;;;;;4.07;3.78;;;17.30;99.90;;;;;;5092238;28;20211;-51
2022/09/08 00:21:18;;;;;;;4.18;3.78;;;17.30;99.90;;;;;;5092244;28;20642;-51
2022/09/08 00:23:48;;;;;;;4.20;3.80;;;17.30;99.90;;;;;;5090949;28;20232;-51
2022/09/08 00:26:16;;;;;;;4.10;3.78;;;17.20;99.90;;;;;;5090659;28;20303;-51
2022/09/08 00:28:44;;;;;;;4.53;4.00;;;17.20;99.90;;;;;;5091138;28;20228;-51
2022/09/08 00:31:12;;;;;;;4.40;4.03;;;17.20;99.90;;;;;;5091449;28;20204;-51
2022/09/08 00:33:40;;;;;;;5.13;4.45;;;17.20;99.90;;;;;;5091129;28;20204;-51
2022/09/08 00:36:14;;;;;;;4.20;3.90;;;17.20;99.90;;;;;;5077946;28;20662;-51
2022/09/08 00:38:42;;;;;;;4.43;4.03;;;17.20;99.90;;;;;;5077953;28;20236;-51
2022/09/08 00:41:13;;;;;;;5.10;4.10;;;17.20;99.90;;;;;;5091393;28;20239;-51
2022/09/08 00:43:48;;;;;;;4.75;4.15;;;17.20;99.90;;;;;;5091667;28;20219;-51
2022/09/08 00:46:24;;;;;;;5.50;4.20;;;17.20;99.90;;;;;;5090261;28;20236;-51
2022/09/08 00:48:56;;;;;;;6.13;4.78;;;17.20;99.90;;;;;;5091283;28;20255;-51
2022/09/08 00:51:26;;;;;;;6.03;4.57;;;17.20;99.90;;;;;;5090954;28;20208;-51
2022/09/08 00:53:55;;;;;;;5.57;5.00;;;17.20;99.90;;;;;;5091408;28;20205;-51
2022/09/08 00:56:27;;;;;;;5.72;5.32;;;17.20;99.90;;;;;;5090125;28;20228;-51
2022/09/08 00:58:56;;;;;;;5.00;4.60;;;17.20;99.90;;;;;;5090835;28;20238;-50
2022/09/08 01:01:24;;;;;;;4.50;4.10;;;17.20;99.90;;;;;;5090625;28;20235;-51
2022/09/08 01:03:52;;;;;;;5.10;4.70;;;17.20;99.90;;;;;;5090033;28;20208;-51
2022/09/08 01:15:02;;;;;;;5.20;4.70;;;17.00;99.90;;;;;;5091070;28;20239;-51
2022/09/08 01:17:31;;;;;;;4.82;4.43;;;17.00;99.90;;;;;;5110193;28;20220;-51
2022/09/08 01:20:02;;;;;;;4.93;4.53;;;17.00;99.90;;;;;;5110628;28;20211;-51
2022/09/08 01:22:56;;;;;;;6.13;5.60;;;17.00;99.90;;;;;;5111163;28;20210;-51
2022/09/08 01:25:41;;;;;;;5.85;5.20;;;17.00;99.90;;;;;;5092782;28;20235;-52
2022/09/08 01:28:14;;;;;;;4.80;4.45;;;17.00;99.90;;;;;;5105605;28;20295;-51
2022/09/08 01:30:43;;;;;;;4.35;3.95;;;17.00;99.90;;;;;;5093951;28;20639;-51
2022/09/08 01:33:13;;;;;;;4.65;4.25;;;16.90;99.90;;;;;;5106308;28;20214;-51
2022/09/08 01:35:41;;;;;;;4.65;4.05;;;16.90;99.90;;;;;;5102805;28;20242;-51
2022/09/08 01:38:10;;;;;;;5.13;3.85;;;16.80;99.90;;;;;;5110148;28;20248;-51
2022/09/08 01:40:39;;;;;;;5.85;5.32;;;16.90;99.90;;;;;;5109894;28;20246;-51
2022/09/08 01:43:08;;;;;;;7.80;6.90;;;16.80;99.90;;;;;;5110705;28;20273;-51
2022/09/08 01:45:39;;;;;;;8.15;7.05;;;16.90;99.90;;;;;;5110367;28;20234;-51
2022/09/08 01:48:08;;;;;;;7.53;6.32;;;17.00;99.90;;;;;;5110101;28;20752;-51
2022/09/08 01:50:36;;;;;;;7.03;6.32;;;17.10;99.90;;;;;;5110331;28;20208;-51
2022/09/08 01:53:04;;;;;;;7.47;6.78;;;17.10;99.90;;;;;;5110235;28;20684;-51
2022/09/08 01:55:32;;;;;;;8.18;7.38;;;17.20;99.90;;;;;;5109877;28;20287;-51
2022/09/08 01:58:00;;;;;;;8.10;7.30;;;17.30;99.90;;;;;;5109968;28;20212;-51
2022/09/08 02:00:28;;;;;;;8.60;7.70;;;17.30;99.90;;;;;;5110564;28;20235;-51
2022/09/08 02:02:58;;;;;;;7.05;6.22;;;17.30;99.90;;;;;;5109908;28;20282;-51
2022/09/08 02:05:26;;;;;;;6.57;6.07;;;17.30;99.90;;;;;;5109655;28;20234;-51
2022/09/08 02:07:54;;;;;;;7.72;7.10;;;17.30;99.90;;;;;;5110029;28;20633;-51
2022/09/08 02:10:22;;;;;;;6.03;5.53;;;17.40;99.90;;;;;;5109554;28;20207;-51
2022/09/08 02:12:50;;;;;;;5.97;5.47;;;17.30;99.90;;;;;;5109003;28;20650;-51
2022/09/08 02:15:18;;;;;;;5.75;5.15;;;17.10;99.90;;;;;;5107980;28;20220;-51
2022/09/08 02:17:46;;;;;;;5.50;5.00;;;17.00;99.90;;;;;;5109990;28;20253;-52
2022/09/08 02:20:16;;;;;;;6.22;5.15;;;16.90;99.90;;;;;;5109665;28;20778;-51
2022/09/08 02:22:44;;;;;;;5.90;5.40;;;16.90;99.90;;;;;;5110275;28;20212;-51
2022/09/08 02:25:13;;;;;;;5.70;5.10;;;16.90;99.90;;;;;;5109528;28;20294;-51
2022/09/08 02:27:41;;;;;;;5.25;4.85;;;16.90;99.90;;;;;;5108049;28;20266;-51
2022/09/08 02:30:11;;;;;;;5.70;5.20;;;16.90;99.90;;;;;;5097648;28;20638;-51
2022/09/08 02:32:39;;;;;;;5.45;4.95;;;16.80;99.90;;;;;;5108427;28;20222;-50
2022/09/08 02:35:08;;;;;;;5.70;5.30;;;16.90;99.90;;;;;;5101809;28;20256;-52
2022/09/08 02:37:38;;;;;;;6.68;5.97;;;16.90;99.90;;;;;;5109480;28;21005;-51
2022/09/08 02:40:07;;;;;;;6.68;6.07;;;17.00;99.90;;;;;;5109614;28;20234;-51
2022/09/08 02:42:36;;;;;;;6.78;6.05;;;16.90;99.90;;;;;;5109166;28;20726;-51
2022/09/08 02:45:06;;;;;;;5.72;5.32;;;16.80;99.90;;;;;;5110154;28;20290;-51
2022/09/08 02:47:34;;;;;;;6.88;5.72;;;16.70;99.90;;;;;;5109362;28;20738;-51
2022/09/08 02:50:02;;;;;;;7.53;6.57;;;16.60;99.90;;;;;;5109387;28;20231;-51
2022/09/08 02:52:31;;;;;;;6.70;5.93;;;16.60;99.90;;;;;;5109352;28;20290;-52
2022/09/08 02:55:01;;;;;;;6.32;5.72;;;16.60;99.90;;;;;;5109726;28;20679;-51
2022/09/08 02:57:29;;;;;;;7.38;5.75;;;16.60;99.90;;;;;;5109457;28;20223;-51
2022/09/08 02:59:57;;;;;;;6.72;6.07;;;16.60;99.90;;;;;;5081873;28;20243;-51
2022/09/08 03:02:25;;;;;;;7.50;5.70;;;16.60;99.90;;;;;;5109749;28;20319;-51
2022/09/08 03:04:53;;;;;;;7.10;5.50;;;16.60;99.90;;;;;;5108824;28;20218;-51
2022/09/08 03:07:21;;;;;;;6.45;5.38;;;16.60;99.90;;;;;;5106449;28;20861;-52
2022/09/08 03:09:51;;;;;;;6.13;5.53;;;16.70;99.90;;;;;;5111477;28;20290;-51
2022/09/08 03:12:20;;;;;;;6.00;5.50;;;16.70;99.90;;;;;;5111998;28;20203;-51
2022/09/08 03:14:49;;;;;;;6.63;5.47;;;16.70;99.90;;;;;;5102191;28;20262;-52
2022/09/08 03:17:17;;;;;;;6.20;5.60;;;16.70;99.90;;;;;;5109890;28;20657;-52
2022/09/08 03:19:45;;;;;;;6.47;5.50;;;16.70;99.90;;;;;;5113025;28;20235;-51
2022/09/08 03:22:13;;;;;;;7.28;5.75;;;16.80;99.90;;;;;;5113193;28;20246;-51
2022/09/08 03:24:42;;;;;;;6.20;5.60;;;16.80;99.90;;;;;;5116399;28;20247;-50
2022/09/08 03:27:10;;;;;;;7.03;6.07;;;16.80;99.90;;;;;;5115072;28;20896;-51
2022/09/08 03:29:40;;;;;;;6.30;5.68;;;16.80;99.90;;;;;;5103975;28;20235;-51
2022/09/08 03:32:08;;;;;;;7.57;5.60;;;16.80;99.90;;;;;;5106758;28;20246;-52
2022/09/08 03:34:37;;;;;;;6.07;5.50;;;16.90;99.90;;;;;;5102658;28;20294;-50
2022/09/08 03:37:06;;;;;;;6.82;5.68;;;16.90;99.90;;;;;;5113626;28;20225;-51
2022/09/08 03:39:34;;;;;;;6.35;5.70;;;16.80;99.90;;;;;;5112922;28;20317;-51
2022/09/08 03:42:02;;;;;;;6.72;6.00;;;16.90;99.90;;;;;;5112461;28;20212;-51
2022/09/08 03:44:30;;;;;;;7.60;6.03;;;16.90;99.90;;;;;;5112677;28;20286;-51
2022/09/08 03:47:00;;;;;;;8.85;6.57;;;16.90;99.90;;;;;;5112813;28;20265;-51
2022/09/08 03:49:28;;;;;;;8.10;6.18;;;16.90;99.90;;;;;;5111610;28;20239;-51
2022/09/08 03:51:57;;;;;;;8.63;6.95;;;16.90;99.90;;;;;;5112085;28;20291;-51
2022/09/08 03:57:10;;;;;;;7.32;6.63;;;16.90;99.90;;;;;;5112275;28;20708;-49
2022/09/08 03:59:38;;;;;;;7.65;6.75;;;16.90;99.90;;;;;;5112665;28;20239;-52
2022/09/08 04:02:07;;;;;;;7.40;6.00;;;17.00;99.90;;;;;;5111965;28;20235;-51
2022/09/08 04:04:36;;;;;;;7.55;6.65;;;17.00;99.90;;;;;;5112118;28;20222;-51
2022/09/08 04:07:05;;;;;;;6.95;6.13;;;17.00;99.90;;;;;;5111302;28;20235;-51
2022/09/08 04:09:33;;;;;;;8.25;6.18;;;17.00;99.90;;;;;;5105998;28;20263;-51
2022/09/08 04:12:01;;;;;;;8.43;6.28;;;17.00;99.90;;;;;;5111086;28;20200;-51
2022/09/08 04:14:30;;;;;;;10.50;7.07;;;17.10;99.90;;;;;;5111114;28;20301;-51
2022/09/08 04:17:00;;;;;;;8.68;6.65;;;17.10;99.90;;;;;;5111968;28;20223;-52
2022/09/08 04:19:29;;;;;;;12.75;7.25;;;17.10;99.90;;;;;;5110525;28;20266;-51
2022/09/08 04:21:58;;;;;;;8.70;7.45;;;17.00;99.90;;;;;;5112523;28;20208;-51
2022/09/08 04:24:26;;;;;;;7.75;7.05;;;17.00;99.90;;;;;;5111684;28;20231;-51
2022/09/08 04:26:54;;;;;;;10.80;7.63;;;17.00;99.90;;;;;;5111179;28;20231;-50
2022/09/08 04:29:22;;;;;;;8.35;7.53;;;17.00;99.90;;;;;;5100795;28;20227;-51
2022/09/08 04:31:50;;;;;;;9.63;8.45;;;17.00;99.90;;;;;;5103080;28;20287;-51
2022/09/08 04:34:19;;;;;;;9.68;8.27;;;17.00;99.90;;;;;;5101243;28;20283;-51
2022/09/08 04:36:48;;;;;;;10.23;8.20;;;17.00;99.90;;;;;;5111872;28;20228;-51
2022/09/08 04:39:18;;;;;;;12.43;8.40;;;17.00;99.90;;;;;;5110320;28;20219;-52
2022/09/08 04:41:46;;;;;;;9.05;7.57;;;17.00;99.90;;;;;;5110876;28;20290;-52
2022/09/08 04:44:14;;;;;;;9.80;8.43;;;17.00;99.90;;;;;;5108092;28;20707;-51
2022/09/08 04:46:42;;;;;;;9.95;8.02;;;17.10;99.90;;;;;;5096918;28;20242;-51
2022/09/08 04:49:10;;;;;;;10.13;8.25;;;17.00;99.90;;;;;;5112000;28;20211;-51
2022/09/08 04:51:39;;;;;;;11.52;7.97;;;17.10;99.90;;;;;;5111438;28;20641;-51
2022/09/08 04:54:10;;;;;;;9.95;8.05;;;17.10;99.90;;;;;;5111770;28;20218;-51
2022/09/08 04:56:38;;;;;;;11.05;8.48;;;17.10;99.90;;;;;;5110107;28;20245;-51
2022/09/08 04:59:06;;;;;;;11.23;8.27;;;17.00;99.90;;;;;;5111850;28;20203;-51
2022/09/08 05:01:36;;;;;;;8.13;7.07;;;17.00;99.90;;;;;;5111357;28;20235;-51
2022/09/08 05:04:05;;;;;;;10.18;7.70;;;17.00;99.90;;;;;;5111410;28;21070;-51
2022/09/08 05:06:35;;;;;;;9.57;7.97;;;17.10;99.90;;;;;;5110860;28;20739;-51
2022/09/08 05:09:04;;;;;;;8.18;7.28;;;17.00;99.90;;;;;;5104111;28;20696;-52
2022/09/08 05:11:35;;;;;;;8.48;7.47;;;17.00;99.90;;;;;;5111175;28;20230;-51
2022/09/08 05:14:04;;;;;;;9.23;7.93;;;17.00;99.90;;;;;;5110537;28;20298;-51
2022/09/08 05:16:33;;;;;;;8.63;7.38;;;17.10;99.90;;;;;;5110921;28;20251;-51
2022/09/08 05:19:03;;;;;;;10.40;7.88;;;17.10;99.90;;;;;;5111338;28;20246;-51
2022/09/08 05:21:33;;;;;;;10.48;7.55;;;17.10;99.90;;;;;;5110476;28;20207;-51
2022/09/08 05:24:02;;;;;;;10.13;7.57;;;17.10;99.90;;;;;;5096074;28;20224;-51
2022/09/08 05:26:30;;;;;;;10.68;8.57;;;17.10;99.90;;;;;;5095635;28;20303;-52
2022/09/08 05:29:02;;;;;;;8.57;7.32;;;17.00;99.90;;;;;;5097951;28;20402;-51
2022/09/08 05:31:31;;;;;;;8.50;6.70;;;17.00;99.90;;;;;;5105549;28;20294;-51
2022/09/08 05:34:01;;;;;;;12.25;7.80;;;17.00;99.90;;;;;;5104413;28;20208;-51
2022/09/08 05:36:32;;;;;;;10.25;8.02;;;17.00;99.90;;;;;;5079409;28;20233;-51
2022/09/08 05:39:01;;;;;;;7.82;7.05;;;17.00;99.90;;;;;;5106725;28;20744;-52
2022/09/08 05:41:30;;;;;;;8.52;7.63;;;17.00;99.90;;;;;;5101360;28;20307;-51
2022/09/08 05:44:01;;;;;;;10.32;7.57;;;17.00;99.90;;;;;;5107516;28;20230;-51
2022/09/08 05:46:30;;;;;;;12.63;7.43;;;17.10;99.90;;;;;;5110424;28;20703;-51
2022/09/08 05:49:00;;;;;;;11.55;7.55;;;17.10;99.90;;;;;;5110084;28;20232;-50
2022/09/08 05:51:28;;;;;;;8.95;6.75;;;17.00;99.90;;;;;;5110037;28;20292;-51
2022/09/08 05:53:59;;;;;;;7.50;6.68;;;17.00;99.90;;;;;;5110107;28;20214;-50
2022/09/08 05:56:27;;;;;;;8.82;6.78;;;17.00;99.90;;;;;;5109991;28;20273;-52
2022/09/08 05:58:58;;;;;;;7.97;6.85;;;17.00;99.90;;;;;;5110375;28;20566;-52
2022/09/08 06:01:29;;;;;;;8.35;7.55;;;17.00;99.90;;;;;;5110423;28;20300;-51
2022/09/08 06:03:59;;;;;;;8.98;7.28;;;17.00;99.90;;;;;;5110182;28;20856;-51
2022/09/08 06:06:28;;;;;;;9.32;7.63;;;17.10;99.90;;;;;;5109453;28;20220;-51
2022/09/08 06:08:59;;;;;;;9.63;7.18;;;17.10;99.90;;;;;;5104080;28;20314;-51
2022/09/08 06:11:28;;;;;;;11.05;7.93;;;17.10;99.90;;;;;;5109529;28;20253;-51
2022/09/08 06:13:57;;;;;;;8.60;7.10;;;17.10;99.90;;;;;;5110095;28;20684;-52
2022/09/08 06:16:27;;;;;;;8.73;7.40;;;17.10;99.90;;;;;;5109926;28;20254;-51
2022/09/08 06:18:58;;;;;;;8.05;7.10;;;17.10;99.90;;;;;;5109952;28;20196;-51
2022/09/08 06:21:28;;;;;;;8.38;6.00;;;17.10;99.90;;;;;;5110039;28;20235;-51
2022/09/08 06:23:58;;;;;;;7.93;6.40;;;17.10;99.90;;;;;;5109623;28;21066;-51
2022/09/08 06:26:54;;;;;;;7.72;6.85;;;17.20;99.90;;;;;;5109331;28;20234;-51
2022/09/08 06:29:35;;;;;;;6.80;6.07;;;17.20;99.90;;;;;;5106233;28;20626;-52
2022/09/08 06:32:14;;;;;;;7.07;6.32;;;17.20;99.90;;;;;;5095659;28;20290;-51
2022/09/08 06:34:47;;;;;;;8.93;6.70;;;17.20;99.90;;;;;;5106051;28;20203;-51
2022/09/08 06:37:28;;;;;;;6.93;6.00;;;17.30;99.90;;;;;;5097270;28;20310;-51
2022/09/08 06:40:03;;;;;;;7.75;6.40;;;17.30;99.90;;;;;;5109834;28;20234;-52
2022/09/08 06:42:38;;;;;;;8.75;6.43;;;17.20;99.90;;;;;;5109265;28;20272;-51
2022/09/08 06:45:14;;;;;;;8.90;6.18;;;17.30;99.90;;;;;;5109898;28;20683;-51
2022/09/08 06:47:50;;;;;;;10.43;7.20;;;17.30;99.90;;;;;;5109771;28;20227;-51
2022/09/08 06:50:19;;;;;;;9.98;6.95;;;17.30;99.90;;;;;;5109747;28;20260;-51
2022/09/08 06:52:50;;;;;;;7.43;6.63;;;17.30;99.90;;;;;;5086572;28;20242;-51
2022/09/08 06:55:39;;;;;;;8.00;7.20;;;17.30;99.90;;;;;;5101882;28;20230;-51
2022/09/08 06:58:21;;;;;;;8.95;8.07;;;17.30;99.90;;;;;;5083159;28;20227;-52
2022/09/08 07:00:56;;;;;;;9.30;8.35;;;17.30;99.90;;;;;;5110183;28;20238;-51
2022/09/08 07:03:53;;;;;;;10.13;8.07;;;17.30;99.90;;;;;;5109657;28;20294;-51
2022/09/08 07:06:25;;;;;;;8.52;7.43;;;17.30;99.90;;;;;;5109995;28;20250;-51
2022/09/08 07:09:11;;;;;;;9.27;8.00;;;17.30;99.90;;;;;;5103507;28;20254;-52
2022/09/08 07:11:47;;;;;;;11.23;9.93;;;17.30;99.90;;;;;;5108941;28;20200;-50
2022/09/08 07:14:34;;;;;;;8.95;8.02;;;17.30;99.90;;;;;;5108845;28;20271;-51
2022/09/08 07:17:06;;;;;;;10.18;8.98;;;17.30;99.90;;;;;;5081103;28;20228;-51
2022/09/08 07:19:48;;;;;;;12.15;10.68;;;17.30;99.90;;;;;;5088629;28;20222;-51
2022/09/08 07:22:24;;;;;;;12.07;9.15;;;17.40;99.90;;;;;;5077368;28;20200;-51
2022/09/08 07:24:57;;;;;;;9.80;8.55;;;17.40;99.90;;;;;;5089017;28;20245;-52
2022/09/08 07:27:26;;;;;;;10.40;9.05;;;17.30;99.90;;;;;;5088606;28;20248;-51
2022/09/08 07:29:59;;;;;;;10.43;9.32;;;17.30;99.90;;;;;;5089183;28;20263;-51
2022/09/08 07:32:31;;;;;;;10.32;9.32;;;17.30;99.90;;;;;;5088615;28;20622;-52
2022/09/08 07:35:05;;;;;;;11.40;9.73;;;17.30;99.90;;;;;;5088767;28;20242;-51
2022/09/08 07:37:43;;;;;;;10.55;9.18;;;17.40;99.90;;;;;;5088867;28;20230;-51
2022/09/08 07:40:17;;;;;;;10.90;9.80;;;17.40;99.90;;;;;;5089211;28;20223;-51
2022/09/08 07:42:49;;;;;;;9.90;8.90;;;17.40;99.90;;;;;;5088593;28;20210;-51
2022/09/08 07:45:18;;;;;;;12.70;10.60;;;17.40;99.90;;;;;;5089074;28;20292;-51
2022/09/08 07:47:57;;;;;;;10.73;9.63;;;17.30;99.90;;;;;;5094104;28;20716;-51
2022/09/08 07:53:35;;;;;;;11.35;10.15;;;17.30;99.90;;;;;;5093734;28;20291;-52
2022/09/08 07:56:12;;;;;;;11.20;9.02;;;17.30;99.90;;;;;;5094739;28;20714;-51
2022/09/08 07:58:51;;;;;;;9.80;8.80;;;17.40;99.90;;;;;;5093917;28;20283;-51
2022/09/08 08:01:31;;;;;;;10.13;8.75;;;17.30;99.90;;;;;;5111596;28;20202;-51
2022/09/08 08:04:22;;;;;;;8.00;6.97;;;17.30;99.90;;;;;;5112515;28;20237;-51
2022/09/08 08:06:53;;;;;;;9.10;7.57;;;17.30;99.90;;;;;;5111547;28;20305;-51
2022/09/08 08:09:34;;;;;;;10.35;7.78;;;17.30;99.90;;;;;;5107515;28;20243;-52
2022/09/08 08:12:09;;;;;;;9.50;8.50;;;17.30;99.90;;;;;;5111263;28;20235;-51
2022/09/08 08:14:45;;;;;;;9.63;8.73;;;17.30;99.90;;;;;;5112114;28;20299;-51
2022/09/08 08:17:30;;;;;;;10.93;9.75;;;17.30;99.90;;;;;;5109069;28;20251;-51
2022/09/08 08:20:11;;;;;;;9.95;8.98;;;17.20;99.90;;;;;;5088368;28;20239;-52
2022/09/08 08:22:59;;;;;;;13.63;9.23;;;17.10;99.90;;;;;;5105742;28;20304;-51
2022/09/08 08:25:30;;;;;;;15.90;9.50;;;17.20;99.90;;;;;;5106223;28;20218;-51
2022/09/08 08:28:10;;;;;;;10.07;9.02;;;17.20;99.90;;;;;;5108034;28;20291;-51
2022/09/08 08:30:46;;;;;;;12.98;10.20;;;17.20;99.90;;;;;;5112333;28;20199;-51
2022/09/08 08:33:19;;;;;;;8.98;8.18;;;17.20;99.90;;;;;;5108317;28;20208;-51
2022/09/08 08:35:51;;;;;;;10.60;9.48;;;17.10;99.90;;;;;;5111043;28;20254;-51
2022/09/08 08:38:24;;;;;;;11.18;9.68;;;17.20;99.90;;;;;;5112067;28;20235;-51
2022/09/08 08:40:56;;;;;;;9.65;8.82;;;17.20;99.90;;;;;;5111286;28;20203;-52
2022/09/08 08:44:09;;;;;;;10.85;9.75;;;17.30;99.90;;;;;;5111801;28;20234;-52
2022/09/08 08:47:14;;;;;;;10.63;9.52;;;17.30;99.90;;;;;;5085546;28;20227;-50
2022/09/08 08:50:16;;;;;;;11.10;9.98;;;17.20;99.90;;;;;;5107799;28;20285;-52
2022/09/08 08:52:58;;;;;;;8.20;7.15;;;17.30;99.90;;;;;;5041555;28;20203;-52
2022/09/08 08:55:41;;;;;;;7.95;7.05;;;17.40;99.90;;;;;;5110825;28;20961;-51
2022/09/08 08:58:29;;;;;;;6.50;5.90;;;17.50;99.90;;;;;;5111546;28;20211;-51
2022/09/08 09:01:24;;;;;;;7.75;6.60;;;17.50;99.90;;;;;;5111702;28;20199;-52
2022/09/08 09:04:14;;;;;;;8.35;7.50;;;17.60;99.90;;;;;;5109637;28;20207;-52
2022/09/08 09:06:56;;;;;;;7.15;6.45;;;17.50;99.90;;;;;;5110945;28;20227;-50
2022/09/08 09:09:47;;;;;;;5.07;4.57;;;17.50;99.90;;;;;;5087425;28;20234;-51
2022/09/08 09:12:42;;;;;;;5.13;4.53;;;17.60;99.90;;;;;;5078358;28;20248;-51
2022/09/08 09:15:51;;;;;;;4.05;3.75;;;17.50;99.90;;;;;;5086017;28;20688;-52
2022/09/08 09:19:13;;;;;;;3.35;3.05;;;17.60;99.90;;;;;;5045625;28;20218;-51
2022/09/08 09:21:52;;;;;;;3.50;3.20;;;17.60;99.90;;;;;;5096490;28;20360;-52
2022/09/08 09:24:36;;;;;;;3.55;3.25;;;17.60;99.90;;;;;;5111108;28;20286;-52
2022/09/08 09:27:24;;;;;;;3.20;3.00;;;17.70;99.90;;;;;;5109388;28;20227;-51
2022/09/08 09:30:05;;;;;;;3.15;2.95;;;17.60;99.90;;;;;;5109012;28;20667;-51
2022/09/08 09:33:26;;;;;;;2.83;2.63;;;17.70;99.90;;;;;;5110586;28;20203;-52
2022/09/08 09:36:13;;;;;;;3.08;2.88;;;17.80;99.90;;;;;;5093407;28;20255;-51
2022/09/08 09:39:09;;;;;;;2.80;2.53;;;17.80;99.90;;;;;;5110615;28;20246;-52
2022/09/08 09:42:09;;;;;;;3.25;2.95;;;17.90;99.90;;;;;;5103237;28;20243;-52
2022/09/08 09:45:09;;;;;;;4.03;3.60;;;17.90;99.90;;;;;;5102035;28;20242;-50
2022/09/08 09:48:08;;;;;;;4.00;3.70;;;17.90;99.90;;;;;;5073837;28;20310;-51
2022/09/08 09:51:00;;;;;;;4.18;3.80;;;18.00;99.90;;;;;;5109874;28;20319;-51
2022/09/08 09:54:10;;;;;;;3.40;3.13;;;18.00;99.90;;;;;;5110274;28;20695;-51
2022/09/08 09:57:09;;;;;;;3.63;3.33;;;18.10;99.90;;;;;;5026630;28;20317;-52
2022/09/08 10:00:12;;;;;;;3.60;3.30;;;18.10;99.90;;;;;;5109834;28;20699;-51
2022/09/08 10:03:16;;;;;;;3.50;3.20;;;18.10;99.90;;;;;;5085905;28;20283;-51
2022/09/08 10:06:18;;;;;;;3.75;3.40;;;18.20;99.90;;;;;;5110391;28;20212;-51
2022/09/08 10:09:25;;;;;;;3.22;2.92;;;18.30;99.90;;;;;;5096478;28;20238;-51
2022/09/08 10:12:18;;;;;;;3.78;3.42;;;18.40;99.90;;;;;;5097002;28;20310;-51
2022/09/08 10:15:19;;;;;;;2.70;2.50;;;18.50;99.90;;;;;;5088786;28;20330;-51
2022/09/08 10:18:22;;;;;;;2.60;2.40;;;18.70;99.90;;;;;;5096199;28;20225;-52
2022/09/08 10:21:40;;;;;;;2.95;2.00;;;19.00;99.90;;;;;;5109171;28;20237;-51
2022/09/08 10:24:46;;;;;;;2.45;2.15;;;19.10;99.90;;;;;;5108663;28;20577;-51
2022/09/08 10:27:41;;;;;;;1.90;1.80;;;19.30;99.90;;;;;;5109656;28;20302;-51
2022/09/08 10:30:55;;;;;;;2.17;2.00;;;19.80;99.90;;;;;;5082189;28;20269;-51
2022/09/08 10:33:51;;;;;;;2.70;2.13;;;20.20;99.90;;;;;;5074239;28;20208;-52
2022/09/08 10:36:29;;;;;;;1.80;1.70;;;20.30;99.90;;;;;;5107758;28;20331;-51
2022/09/08 10:39:00;;;;;;;2.08;1.90;;;20.40;99.90;;;;;;5109750;28;20619;-51
2022/09/08 10:42:09;;;;;;;1.80;1.70;;;20.30;99.90;;;;;;5109519;28;20205;-51
2022/09/08 10:44:51;;;;;;;2.50;1.70;;;20.30;99.90;;;;;;5110185;28;20204;-51
2022/09/08 10:47:50;;;;;;;3.50;1.70;;;20.50;99.90;;;;;;5084117;28;20337;-51
2022/09/08 10:50:21;;;;;;;1.88;1.45;;;20.50;99.90;;;;;;5108515;28;20686;-51
2022/09/08 10:52:52;;;;;;;2.03;1.75;;;20.40;99.90;;;;;;5109745;28;20200;-51
2022/09/08 10:56:02;;;;;;;1.75;1.25;;;20.40;99.90;;;;;;5083327;28;20242;-51
2022/09/08 10:59:02;;;;;;;2.00;1.58;;;20.20;99.90;;;;;;5102630;28;20231;-51
2022/09/08 11:02:06;;;;;;;1.50;1.40;;;20.20;99.90;;;;;;5105073;28;20219;-52
2022/09/08 11:05:05;;;;;;;6.00;1.70;;;20.00;99.90;;;;;;5096134;28;20232;-51
2022/09/08 11:07:54;;;;;;;2.63;1.90;;;19.80;99.90;;;;;;5105283;28;20286;-50
2022/09/08 11:10:38;;;;;;;1.83;1.60;;;19.90;99.90;;;;;;5104175;28;20650;-52
2022/09/08 11:13:25;;;;;;;1.50;1.40;;;19.90;99.90;;;;;;5109140;28;20231;-51
2022/09/08 11:16:18;;;;;;;1.55;1.45;;;20.00;99.90;;;;;;5108098;28;20241;-51
2022/09/08 11:18:54;;;;;;;4.22;1.73;;;20.30;99.90;;;;;;5107908;28;20216;-51
2022/09/08 11:21:26;;;;;;;1.60;1.45;;;20.50;99.90;;;;;;5106989;28;20704;-51
2022/09/08 11:24:17;;;;;;;1.85;1.70;;;20.60;99.90;;;;;;5107555;28;20803;-51
2022/09/08 11:26:55;;;;;;;1.90;1.80;;;20.70;99.90;;;;;;5079442;28;21086;-51
2022/09/08 11:29:33;;;;;;;2.67;1.55;;;20.60;99.90;;;;;;5108215;28;20238;-51
2022/09/08 11:32:12;;;;;;;1.17;1.10;;;20.50;99.90;;;;;;5113891;28;20695;-51
2022/09/08 11:35:04;;;;;;;2.05;1.30;;;20.50;99.90;;;;;;5112258;28;20291;-51
2022/09/08 11:38:04;;;;;;;1.48;1.38;;;20.40;99.90;;;;;;5113687;28;20266;-51
2022/09/08 11:40:59;;;;;;;2.13;1.20;;;20.40;99.90;;;;;;5087931;28;20286;-51
2022/09/08 11:43:35;;;;;;;1.10;1.05;;;20.40;99.90;;;;;;5113070;28;20208;-51
2022/09/08 11:46:31;;;;;;;1.52;1.17;;;20.50;99.90;;;;;;5113432;28;20583;-51
2022/09/08 11:49:26;;;;;;;1.52;0.90;;;20.60;99.90;;;;;;5087501;28;20663;-51
2022/09/08 11:52:37;;;;;;;1.73;1.30;;;20.70;99.90;;;;;;5113088;28;20235;-51
2022/09/08 11:55:40;;;;;;;1.20;1.10;;;20.80;99.90;;;;;;5113218;28;20212;-51
2022/09/08 11:58:20;;;;;;;1.77;1.15;;;21.00;99.90;;;;;;5113071;28;20681;-52
2022/09/08 12:01:16;;;;;;;1.05;1.02;;;21.20;99.90;;;;;;5103127;28;20291;-52
2022/09/08 12:04:15;;;;;;;1.30;1.20;;;21.30;99.90;;;;;;5112664;28;20291;-52
2022/09/08 12:07:09;;;;;;;1.23;1.10;;;21.40;99.90;;;;;;5111902;28;20757;-51
2022/09/08 12:10:00;;;;;;;1.30;1.20;;;21.30;99.90;;;;;;5112847;28;20281;-51
2022/09/08 12:12:41;;;;;;;1.92;1.33;;;21.20;99.90;;;;;;5112451;28;20238;-51
2022/09/08 12:15:33;;;;;;;0.90;0.90;;;21.10;99.90;;;;;;5112420;28;20253;-51
2022/09/08 12:18:11;;;;;;;1.30;1.20;;;21.30;99.90;;;;;;5089187;28;20218;-51
2022/09/08 12:20:52;;;;;;;0.90;0.90;;;21.40;99.90;;;;;;5111923;28;20227;-51
2022/09/08 12:23:35;;;;;;;1.70;1.05;;;21.30;99.90;;;;;;5112797;28;20897;-50
2022/09/08 12:26:21;;;;;;;2.13;1.17;;;21.30;99.90;;;;;;5112914;28;20227;-51
2022/09/08 12:29:08;;;;;;;1.88;1.20;;;21.20;99.90;;;;;;5113568;28;20207;-51
2022/09/08 12:31:51;;;;;;;2.75;1.13;;;21.10;99.90;;;;;;5114135;28;20318;-51
2022/09/08 12:34:48;;;;;;;1.88;1.15;;;20.90;99.90;;;;;;5112918;28;20299;-51
2022/09/08 12:37:28;;;;;;;1.67;1.10;;;20.80;99.90;;;;;;5064169;28;20227;-51
2022/09/08 12:40:35;;;;;;;1.67;1.17;;;20.80;99.90;;;;;;5112331;28;20356;-52
2022/09/08 12:43:14;;;;;;;3.58;1.40;;;21.00;99.90;;;;;;5109119;28;20672;-51
2022/09/08 12:46:13;;;;;;;2.08;1.40;;;21.10;99.90;;;;;;5112598;28;20203;-52
2022/09/08 12:48:55;;;;;;;1.40;1.13;;;21.30;99.90;;;;;;5092973;28;20210;-51
2022/09/08 12:51:30;;;;;;;1.23;1.10;;;21.60;99.90;;;;;;5112252;28;20227;-51
2022/09/08 12:54:28;;;;;;;2.95;1.38;;;21.70;99.90;;;;;;5111522;28;20230;-52
2022/09/08 12:57:19;;;;;;;1.40;1.30;;;21.80;99.90;;;;;;5110535;28;20327;-52
2022/09/08 12:59:58;;;;;;;1.45;1.10;;;21.80;99.90;;;;;;5086918;28;20204;-51
2022/09/08 13:02:52;;;;;;;1.95;1.40;;;21.60;99.90;;;;;;5097414;28;20291;-51
2022/09/08 13:05:46;;;;;;;3.10;1.15;;;21.60;99.90;;;;;;5093529;28;20211;-51
2022/09/08 13:08:26;;;;;;;1.85;1.23;;;21.70;99.90;;;;;;5110283;28;20235;-52
2022/09/08 13:11:04;;;;;;;1.90;1.38;;;21.70;99.90;;;;;;5110630;28;20235;-51
2022/09/08 13:13:40;;;;;;;1.33;1.23;;;21.80;99.90;;;;;;5111595;28;20199;-51
2022/09/08 13:16:30;;;;;;;1.83;1.30;;;21.90;99.90;;;;;;5084312;28;20661;-51
2022/09/08 13:19:08;;;;;;;0.98;0.82;;;21.70;99.90;;;;;;5081590;28;20244;-51
2022/09/08 13:22:01;;;;;;;0.95;0.85;;;21.90;99.90;;;;;;5110333;28;20234;-51
2022/09/08 13:24:35;;;;;;;2.55;1.20;;;21.70;99.90;;;;;;5110932;28;20239;-51
2022/09/08 13:27:12;;;;;;;1.77;1.25;;;21.60;99.90;;;;;;5110154;28;20750;-51
2022/09/08 13:30:05;;;;;;;1.52;0.98;;;21.50;99.90;;;;;;5109401;28;20209;-50
2022/09/08 13:33:21;;;;;;;3.00;1.10;;;21.30;99.90;;;;;;5109312;28;20212;-50
2022/09/08 13:36:22;;;;;;;4.65;1.15;;;21.30;99.90;;;;;;5110098;28;20217;-51
2022/09/08 13:39:20;;;;;;;1.83;1.13;;;21.40;99.90;;;;;;5086339;28;20199;-52
2022/09/08 13:42:22;;;;;;;1.80;0.80;;;21.60;99.90;;;;;;5110330;28;20238;-51
2022/09/08 13:45:08;;;;;;;2.08;1.20;;;21.70;99.90;;;;;;5110064;28;20209;-51
2022/09/08 13:48:03;;;;;;;1.35;0.95;;;21.80;99.90;;;;;;5110243;28;20247;-52
2022/09/08 13:50:53;;;;;;;2.05;0.93;;;22.00;99.90;;;;;;5109462;28;20294;-51
2022/09/08 13:53:38;;;;;;;1.35;1.10;;;22.10;99.90;;;;;;5083859;28;20317;-50
2022/09/08 13:56:21;;;;;;;2.33;0.88;;;22.00;99.90;;;;;;5086744;28;20941;-51
2022/09/08 13:58:50;;;;;;;1.45;1.05;;;22.00;99.90;;;;;;5091680;28;20204;-51